TAP1705 LPPR-LPMA
Flight info
| Callsign | TAP1705 |
|---|---|
| Flight time | 2h 0m |
| Altitude | 35000 |
| Route | ASMOV DCT DIRMA DCT VABEM DCT LIDRO |
| Aircraft | A320/M-SDE3FGHIRWY/LB1 |
Departure
| Time | 2026-05-05 18:25 |
|---|---|
| Airport | Francisco de Sá Carneiro Airport (LPPR) |
Arrival
| Time | 2026-05-05 20:25 |
|---|---|
| Airport | Cristiano Ronaldo International Airport (LPMA) |
| Time | Latitude | Longitude | Altitude | Speed | Heading |
|---|---|---|---|---|---|
| 2026-05-05 18:05 | 41.23590 | -8.67226 | 242 ft | 0 kts | 90° |
| 2026-05-05 18:14 | 41.23590 | -8.67228 | 242 ft | 2 kts | 90° |
| 2026-05-05 18:15 | 41.23590 | -8.67261 | 242 ft | 4 kts | 89° |
| 2026-05-05 18:15 | 41.23590 | -8.67297 | 242 ft | 4 kts | 95° |
| 2026-05-05 18:15 | 41.23596 | -8.67329 | 242 ft | 4 kts | 131° |
| 2026-05-05 18:15 | 41.23605 | -8.67338 | 242 ft | 1 kts | 184° |
| 2026-05-05 18:18 | 41.23604 | -8.67339 | 242 ft | 0 kts | 184° |
| 2026-05-05 18:18 | 41.23602 | -8.67339 | 242 ft | 2 kts | 185° |
| 2026-05-05 18:19 | 41.23582 | -8.67348 | 241 ft | 9 kts | 202° |
| 2026-05-05 18:19 | 41.23509 | -8.67388 | 237 ft | 12 kts | 190° |
| 2026-05-05 18:19 | 41.23430 | -8.67373 | 237 ft | 11 kts | 169° |
| 2026-05-05 18:19 | 41.23360 | -8.67378 | 237 ft | 11 kts | 209° |
| 2026-05-05 18:20 | 41.23329 | -8.67460 | 239 ft | 10 kts | 258° |
| 2026-05-05 18:20 | 41.23315 | -8.67551 | 241 ft | 10 kts | 259° |
| 2026-05-05 18:20 | 41.23307 | -8.67603 | 237 ft | 0 kts | 257° |
| 2026-05-05 18:22 | 41.23307 | -8.67604 | 237 ft | 1 kts | 257° |
| 2026-05-05 18:22 | 41.23301 | -8.67646 | 237 ft | 8 kts | 262° |
| 2026-05-05 18:22 | 41.23323 | -8.67724 | 240 ft | 12 kts | 317° |
| 2026-05-05 18:22 | 41.23354 | -8.67744 | 239 ft | 0 kts | 345° |
| 2026-05-05 18:24 | 41.23483 | -8.67779 | 234 ft | 53 kts | 348° |
| 2026-05-05 18:24 | 41.24073 | -8.67933 | 214 ft | 117 kts | 348° |
| 2026-05-05 18:25 | 41.25038 | -8.68180 | 270 ft | 158 kts | 348° |
| 2026-05-05 18:25 | 41.25730 | -8.68340 | 898 ft | 143 kts | 349° |
| 2026-05-05 18:25 | 41.27047 | -8.68625 | 1685 ft | 158 kts | 348° |
| 2026-05-05 18:25 | 41.28192 | -8.68926 | 2084 ft | 176 kts | 346° |
| 2026-05-05 18:26 | 41.29457 | -8.69302 | 2434 ft | 196 kts | 346° |
| 2026-05-05 18:26 | 41.30852 | -8.69723 | 2741 ft | 219 kts | 346° |
| 2026-05-05 18:26 | 41.32439 | -8.70188 | 3053 ft | 247 kts | 347° |
| 2026-05-05 18:26 | 41.34160 | -8.70658 | 3871 ft | 251 kts | 348° |
| 2026-05-05 18:27 | 41.35861 | -8.71090 | 4947 ft | 249 kts | 348° |
| 2026-05-05 18:27 | 41.37593 | -8.71536 | 5750 ft | 256 kts | 348° |
| 2026-05-05 18:27 | 41.39341 | -8.72034 | 6636 ft | 258 kts | 342° |
| 2026-05-05 18:27 | 41.40864 | -8.73257 | 7448 ft | 262 kts | 312° |
| 2026-05-05 18:28 | 41.41653 | -8.78013 | 9089 ft | 280 kts | 263° |
| 2026-05-05 18:28 | 41.41257 | -8.80583 | 9898 ft | 285 kts | 262° |
| 2026-05-05 18:28 | 41.40822 | -8.83178 | 10557 ft | 296 kts | 256° |
| 2026-05-05 18:29 | 41.39911 | -8.85775 | 10770 ft | 325 kts | 240° |
| 2026-05-05 18:29 | 41.38401 | -8.88155 | 11086 ft | 347 kts | 226° |
| 2026-05-05 18:29 | 41.36496 | -8.90192 | 11713 ft | 354 kts | 221° |
| 2026-05-05 18:29 | 41.34550 | -8.92231 | 12433 ft | 358 kts | 221° |
| 2026-05-05 18:30 | 41.32593 | -8.94301 | 13137 ft | 361 kts | 222° |
| 2026-05-05 18:30 | 41.30620 | -8.96394 | 13848 ft | 364 kts | 222° |
| 2026-05-05 18:30 | 41.28624 | -8.98501 | 14474 ft | 367 kts | 222° |
| 2026-05-05 18:30 | 41.26620 | -9.00600 | 14801 ft | 368 kts | 222° |
| 2026-05-05 18:31 | 41.24599 | -9.02710 | 15021 ft | 370 kts | 222° |
| 2026-05-05 18:31 | 41.22559 | -9.04833 | 15521 ft | 374 kts | 222° |
| 2026-05-05 18:31 | 41.20510 | -9.06963 | 16033 ft | 375 kts | 223° |
| 2026-05-05 18:31 | 41.18448 | -9.09105 | 16558 ft | 377 kts | 223° |
| 2026-05-05 18:32 | 41.16375 | -9.11256 | 17185 ft | 379 kts | 223° |
| 2026-05-05 18:32 | 41.14286 | -9.13423 | 17808 ft | 382 kts | 223° |
| 2026-05-05 18:32 | 41.12190 | -9.15599 | 18397 ft | 385 kts | 223° |
| 2026-05-05 18:32 | 41.10080 | -9.17792 | 18912 ft | 387 kts | 223° |
| 2026-05-05 18:33 | 41.07954 | -9.20001 | 19434 ft | 389 kts | 223° |
| 2026-05-05 18:33 | 41.05816 | -9.22220 | 19951 ft | 391 kts | 223° |
| 2026-05-05 18:33 | 41.03673 | -9.24438 | 20467 ft | 393 kts | 223° |
| 2026-05-05 18:33 | 41.01508 | -9.26676 | 20978 ft | 395 kts | 223° |
| 2026-05-05 18:34 | 40.99340 | -9.28913 | 21473 ft | 397 kts | 223° |
| 2026-05-05 18:34 | 40.97159 | -9.31164 | 21967 ft | 399 kts | 223° |
| 2026-05-05 18:34 | 40.94968 | -9.33423 | 22438 ft | 400 kts | 223° |
| 2026-05-05 18:34 | 40.92766 | -9.35693 | 22917 ft | 402 kts | 223° |
| 2026-05-05 18:35 | 40.90552 | -9.37974 | 23394 ft | 404 kts | 223° |
| 2026-05-05 18:35 | 40.88331 | -9.40263 | 23827 ft | 406 kts | 223° |
| 2026-05-05 18:35 | 40.86091 | -9.42566 | 24207 ft | 408 kts | 223° |
| 2026-05-05 18:35 | 40.83846 | -9.44870 | 24595 ft | 410 kts | 223° |
| 2026-05-05 18:36 | 40.81588 | -9.47185 | 24964 ft | 412 kts | 222° |
| 2026-05-05 18:36 | 40.79291 | -9.49536 | 25332 ft | 413 kts | 222° |
| 2026-05-05 18:36 | 40.77045 | -9.51835 | 25698 ft | 415 kts | 222° |
| 2026-05-05 18:36 | 40.74759 | -9.54175 | 26063 ft | 417 kts | 222° |
| 2026-05-05 18:37 | 40.72435 | -9.56554 | 26415 ft | 418 kts | 222° |
| 2026-05-05 18:37 | 40.70163 | -9.58878 | 26778 ft | 420 kts | 222° |
| 2026-05-05 18:37 | 40.67851 | -9.61239 | 27143 ft | 421 kts | 222° |
| 2026-05-05 18:37 | 40.65524 | -9.63610 | 27491 ft | 423 kts | 222° |
| 2026-05-05 18:38 | 40.63192 | -9.65981 | 27846 ft | 425 kts | 222° |
| 2026-05-05 18:38 | 40.60849 | -9.68362 | 28180 ft | 426 kts | 222° |
| 2026-05-05 18:38 | 40.58499 | -9.70751 | 28516 ft | 428 kts | 222° |
| 2026-05-05 18:38 | 40.56138 | -9.73152 | 28837 ft | 429 kts | 222° |
| 2026-05-05 18:39 | 40.53769 | -9.75558 | 29138 ft | 431 kts | 222° |
| 2026-05-05 18:39 | 40.51392 | -9.77968 | 29437 ft | 433 kts | 222° |
| 2026-05-05 18:39 | 40.49003 | -9.80391 | 29716 ft | 434 kts | 221° |
| 2026-05-05 18:39 | 40.46613 | -9.82813 | 30023 ft | 435 kts | 221° |
| 2026-05-05 18:40 | 40.44210 | -9.85246 | 30289 ft | 437 kts | 221° |
| 2026-05-05 18:40 | 40.41802 | -9.87679 | 30605 ft | 436 kts | 221° |
| 2026-05-05 18:40 | 40.39401 | -9.90098 | 30972 ft | 434 kts | 221° |
| 2026-05-05 18:40 | 40.37006 | -9.92505 | 31335 ft | 433 kts | 221° |
| 2026-05-05 18:41 | 40.34622 | -9.94901 | 31697 ft | 431 kts | 221° |
| 2026-05-05 18:41 | 40.32248 | -9.97290 | 32054 ft | 430 kts | 221° |
| 2026-05-05 18:41 | 40.29881 | -9.99672 | 32414 ft | 428 kts | 221° |
| 2026-05-05 18:41 | 40.27521 | -10.02043 | 32766 ft | 427 kts | 221° |
| 2026-05-05 18:42 | 40.25934 | -10.03640 | 33004 ft | 426 kts | 222° |
| 2026-05-05 18:42 | 40.23589 | -10.05999 | 33358 ft | 424 kts | 222° |
| 2026-05-05 18:42 | 40.21248 | -10.08350 | 33713 ft | 423 kts | 221° |
| 2026-05-05 18:42 | 40.18915 | -10.10687 | 34069 ft | 422 kts | 221° |
| 2026-05-05 18:43 | 40.16588 | -10.13017 | 34369 ft | 421 kts | 221° |
| 2026-05-05 18:43 | 40.14264 | -10.15339 | 34633 ft | 420 kts | 221° |
| 2026-05-05 18:43 | 40.11972 | -10.17626 | 34881 ft | 420 kts | 221° |
| 2026-05-05 18:43 | 40.09615 | -10.19980 | 35056 ft | 421 kts | 221° |
| 2026-05-05 18:44 | 40.04986 | -10.24600 | 35111 ft | 422 kts | 221° |
| 2026-05-05 18:44 | 40.00319 | -10.29247 | 35112 ft | 422 kts | 221° |
| 2026-05-05 18:45 | 39.95646 | -10.33888 | 35117 ft | 422 kts | 221° |
| 2026-05-05 18:45 | 39.90970 | -10.38519 | 35117 ft | 422 kts | 221° |
| 2026-05-05 18:46 | 39.86293 | -10.43140 | 35122 ft | 422 kts | 221° |
| 2026-05-05 18:46 | 39.81616 | -10.47757 | 35120 ft | 422 kts | 221° |
| 2026-05-05 18:47 | 39.76938 | -10.52371 | 35100 ft | 422 kts | 221° |
| 2026-05-05 18:47 | 39.72267 | -10.56971 | 35107 ft | 421 kts | 221° |
| 2026-05-05 18:48 | 39.67595 | -10.61564 | 35110 ft | 421 kts | 220° |
| 2026-05-05 18:48 | 39.62918 | -10.66157 | 35112 ft | 422 kts | 220° |
| 2026-05-05 18:49 | 39.58235 | -10.70741 | 35110 ft | 422 kts | 220° |
| 2026-05-05 18:49 | 39.53548 | -10.75322 | 35115 ft | 422 kts | 220° |
| 2026-05-05 18:50 | 39.48863 | -10.79894 | 35123 ft | 421 kts | 221° |
| 2026-05-05 18:50 | 39.44190 | -10.84442 | 35139 ft | 420 kts | 221° |
| 2026-05-05 18:51 | 39.39530 | -10.88977 | 35146 ft | 419 kts | 221° |
| 2026-05-05 18:51 | 39.34878 | -10.93499 | 35140 ft | 418 kts | 221° |
| 2026-05-05 18:52 | 39.30225 | -10.98014 | 35122 ft | 418 kts | 220° |
| 2026-05-05 18:52 | 39.25569 | -11.02519 | 35123 ft | 418 kts | 221° |
| 2026-05-05 18:53 | 39.20923 | -11.07000 | 35131 ft | 417 kts | 221° |
| 2026-05-05 18:53 | 39.16286 | -11.11473 | 35134 ft | 416 kts | 221° |
| 2026-05-05 18:54 | 39.11649 | -11.15937 | 35135 ft | 416 kts | 221° |
| 2026-05-05 18:54 | 39.07020 | -11.20392 | 35140 ft | 415 kts | 221° |
| 2026-05-05 18:55 | 39.02388 | -11.24845 | 35125 ft | 415 kts | 221° |
| 2026-05-05 18:55 | 38.97765 | -11.29277 | 35141 ft | 414 kts | 221° |
| 2026-05-05 18:56 | 38.93142 | -11.33692 | 35141 ft | 414 kts | 220° |
| 2026-05-05 18:56 | 38.88522 | -11.38101 | 35144 ft | 414 kts | 220° |
| 2026-05-05 18:57 | 38.83899 | -11.42493 | 35143 ft | 413 kts | 220° |
| 2026-05-05 18:57 | 38.79280 | -11.46894 | 35143 ft | 414 kts | 220° |
| 2026-05-05 18:58 | 38.74664 | -11.51278 | 35141 ft | 413 kts | 220° |
| 2026-05-05 18:58 | 38.70056 | -11.55646 | 35151 ft | 411 kts | 221° |
| 2026-05-05 18:59 | 38.65459 | -11.60001 | 35154 ft | 411 kts | 220° |
| 2026-05-05 18:59 | 38.60863 | -11.64346 | 35159 ft | 411 kts | 220° |
| 2026-05-05 19:00 | 38.56270 | -11.68681 | 35157 ft | 410 kts | 220° |
| 2026-05-05 19:00 | 38.51678 | -11.73007 | 35142 ft | 410 kts | 220° |
| 2026-05-05 19:01 | 38.47093 | -11.77317 | 35152 ft | 409 kts | 220° |
| 2026-05-05 19:01 | 38.42517 | -11.81621 | 35153 ft | 409 kts | 220° |
| 2026-05-05 19:02 | 38.37938 | -11.85916 | 35152 ft | 408 kts | 220° |
| 2026-05-05 19:02 | 38.33355 | -11.90194 | 35152 ft | 408 kts | 220° |
| 2026-05-05 19:03 | 38.28785 | -11.94473 | 35152 ft | 408 kts | 220° |
| 2026-05-05 19:03 | 38.24211 | -11.98749 | 35134 ft | 408 kts | 220° |
| 2026-05-05 19:04 | 38.19634 | -12.03009 | 35137 ft | 408 kts | 220° |
| 2026-05-05 19:04 | 38.15061 | -12.07266 | 35140 ft | 408 kts | 220° |
| 2026-05-05 19:05 | 38.10480 | -12.11516 | 35142 ft | 408 kts | 220° |
| 2026-05-05 19:05 | 38.05901 | -12.15763 | 35143 ft | 408 kts | 220° |
| 2026-05-05 19:06 | 38.01316 | -12.20017 | 35123 ft | 408 kts | 220° |
| 2026-05-05 19:06 | 37.96731 | -12.24267 | 35130 ft | 409 kts | 220° |
| 2026-05-05 19:07 | 37.92132 | -12.28499 | 35138 ft | 409 kts | 220° |
| 2026-05-05 19:07 | 37.87525 | -12.32735 | 35140 ft | 409 kts | 220° |
| 2026-05-05 19:08 | 37.82922 | -12.36968 | 35153 ft | 409 kts | 220° |
| 2026-05-05 19:08 | 37.78316 | -12.41209 | 35153 ft | 409 kts | 220° |
| 2026-05-05 19:09 | 37.73703 | -12.45434 | 35155 ft | 410 kts | 220° |
| 2026-05-05 19:09 | 37.69087 | -12.49660 | 35155 ft | 410 kts | 220° |
| 2026-05-05 19:10 | 37.64467 | -12.53890 | 35157 ft | 410 kts | 220° |
| 2026-05-05 19:10 | 37.59845 | -12.58106 | 35158 ft | 410 kts | 219° |
| 2026-05-05 19:11 | 37.55218 | -12.62320 | 35160 ft | 410 kts | 220° |
| 2026-05-05 19:11 | 37.50582 | -12.66531 | 35144 ft | 411 kts | 220° |
| 2026-05-05 19:12 | 37.45946 | -12.70740 | 35150 ft | 411 kts | 220° |
| 2026-05-05 19:12 | 37.41308 | -12.74962 | 35153 ft | 412 kts | 220° |
| 2026-05-05 19:13 | 37.36664 | -12.79173 | 35160 ft | 412 kts | 219° |
| 2026-05-05 19:13 | 37.32007 | -12.83379 | 35163 ft | 412 kts | 219° |
| 2026-05-05 19:14 | 37.27355 | -12.87578 | 35165 ft | 412 kts | 219° |
| 2026-05-05 19:14 | 37.22700 | -12.91776 | 35155 ft | 412 kts | 219° |
| 2026-05-05 19:15 | 37.18039 | -12.95968 | 35152 ft | 412 kts | 219° |
| 2026-05-05 19:15 | 37.13376 | -13.00154 | 35155 ft | 413 kts | 219° |
| 2026-05-05 19:16 | 37.08707 | -13.04345 | 35157 ft | 413 kts | 219° |
| 2026-05-05 19:16 | 37.04043 | -13.08530 | 35166 ft | 413 kts | 219° |
| 2026-05-05 19:17 | 36.99372 | -13.12711 | 35161 ft | 413 kts | 219° |
| 2026-05-05 19:17 | 36.94695 | -13.16883 | 35151 ft | 413 kts | 219° |
| 2026-05-05 19:18 | 36.90015 | -13.21056 | 35155 ft | 413 kts | 219° |
| 2026-05-05 19:18 | 36.85331 | -13.25215 | 35154 ft | 413 kts | 219° |
| 2026-05-05 19:19 | 36.80649 | -13.29375 | 35160 ft | 413 kts | 219° |
| 2026-05-05 19:19 | 36.75969 | -13.33542 | 35160 ft | 413 kts | 219° |
| 2026-05-05 19:20 | 36.71283 | -13.37697 | 35133 ft | 414 kts | 219° |
| 2026-05-05 19:20 | 36.66589 | -13.41847 | 35144 ft | 414 kts | 219° |
| 2026-05-05 19:21 | 36.61888 | -13.46000 | 35153 ft | 414 kts | 219° |
| 2026-05-05 19:21 | 36.57185 | -13.50148 | 35165 ft | 414 kts | 219° |
| 2026-05-05 19:22 | 36.53282 | -13.53589 | 35168 ft | 414 kts | 219° |
| 2026-05-05 19:22 | 36.48587 | -13.57726 | 35170 ft | 413 kts | 219° |
| 2026-05-05 19:23 | 36.43893 | -13.61846 | 35142 ft | 413 kts | 219° |
| 2026-05-05 19:23 | 36.39198 | -13.65965 | 35152 ft | 414 kts | 219° |
| 2026-05-05 19:24 | 36.34492 | -13.70079 | 35157 ft | 414 kts | 219° |
| 2026-05-05 19:24 | 36.29778 | -13.74188 | 35160 ft | 414 kts | 219° |
| 2026-05-05 19:25 | 36.25071 | -13.78302 | 35162 ft | 414 kts | 219° |
| 2026-05-05 19:25 | 36.20367 | -13.82416 | 35162 ft | 414 kts | 219° |
| 2026-05-05 19:26 | 36.15655 | -13.86525 | 35149 ft | 414 kts | 219° |
| 2026-05-05 19:26 | 36.10943 | -13.90625 | 35155 ft | 414 kts | 219° |
| 2026-05-05 19:27 | 36.06224 | -13.94718 | 35162 ft | 414 kts | 218° |
| 2026-05-05 19:27 | 36.01498 | -13.98802 | 35160 ft | 414 kts | 218° |
| 2026-05-05 19:28 | 35.96779 | -14.02889 | 35173 ft | 415 kts | 218° |
| 2026-05-05 19:28 | 35.92046 | -14.06966 | 35169 ft | 414 kts | 218° |
| 2026-05-05 19:29 | 35.87323 | -14.11046 | 35153 ft | 415 kts | 218° |
| 2026-05-05 19:29 | 35.82594 | -14.15121 | 35156 ft | 415 kts | 218° |
| 2026-05-05 19:30 | 35.77855 | -14.19193 | 35168 ft | 415 kts | 218° |
| 2026-05-05 19:30 | 35.73113 | -14.23265 | 35170 ft | 415 kts | 218° |
| 2026-05-05 19:31 | 35.68380 | -14.27337 | 35179 ft | 415 kts | 218° |
| 2026-05-05 19:31 | 35.63641 | -14.31388 | 35147 ft | 415 kts | 218° |
| 2026-05-05 19:32 | 35.58903 | -14.35438 | 35161 ft | 415 kts | 218° |
| 2026-05-05 19:32 | 35.54163 | -14.39487 | 35160 ft | 415 kts | 218° |
| 2026-05-05 19:33 | 35.49415 | -14.43535 | 35164 ft | 416 kts | 218° |
| 2026-05-05 19:33 | 35.44665 | -14.47587 | 35167 ft | 416 kts | 218° |
| 2026-05-05 19:34 | 35.39911 | -14.51634 | 35172 ft | 416 kts | 218° |
| 2026-05-05 19:35 | 35.32776 | -14.57686 | 35148 ft | 416 kts | 218° |
| 2026-05-05 19:35 | 35.28012 | -14.61710 | 35152 ft | 416 kts | 218° |
| 2026-05-05 19:36 | 35.23244 | -14.65740 | 35159 ft | 417 kts | 218° |
| 2026-05-05 19:36 | 35.18477 | -14.69768 | 35164 ft | 417 kts | 218° |
| 2026-05-05 19:37 | 35.13702 | -14.73794 | 35166 ft | 417 kts | 218° |
| 2026-05-05 19:37 | 35.08929 | -14.77814 | 35168 ft | 417 kts | 218° |
| 2026-05-05 19:38 | 35.04158 | -14.81831 | 35169 ft | 417 kts | 218° |
| 2026-05-05 19:38 | 34.99383 | -14.85841 | 35170 ft | 417 kts | 218° |
| 2026-05-05 19:39 | 34.94609 | -14.89847 | 35170 ft | 416 kts | 218° |
| 2026-05-05 19:39 | 34.89838 | -14.93850 | 35171 ft | 416 kts | 218° |
| 2026-05-05 19:40 | 34.85064 | -14.97841 | 35165 ft | 416 kts | 218° |
| 2026-05-05 19:40 | 34.80289 | -15.01815 | 35145 ft | 416 kts | 218° |
| 2026-05-05 19:41 | 34.75516 | -15.05781 | 35146 ft | 416 kts | 218° |
| 2026-05-05 19:41 | 34.70743 | -15.09756 | 35149 ft | 416 kts | 218° |
| 2026-05-05 19:42 | 34.65970 | -15.13739 | 35148 ft | 416 kts | 218° |
| 2026-05-05 19:42 | 34.61196 | -15.17714 | 35150 ft | 416 kts | 218° |
| 2026-05-05 19:43 | 34.56411 | -15.21673 | 35149 ft | 416 kts | 218° |
| 2026-05-05 19:43 | 34.51624 | -15.25635 | 35136 ft | 416 kts | 218° |
| 2026-05-05 19:44 | 34.46840 | -15.29590 | 35138 ft | 416 kts | 217° |
| 2026-05-05 19:44 | 34.42056 | -15.33531 | 35139 ft | 416 kts | 217° |
| 2026-05-05 19:45 | 34.37271 | -15.37480 | 35143 ft | 416 kts | 218° |
| 2026-05-05 19:45 | 34.32488 | -15.41417 | 35142 ft | 416 kts | 217° |
| 2026-05-05 19:46 | 34.27698 | -15.45343 | 35142 ft | 416 kts | 217° |
| 2026-05-05 19:46 | 34.22918 | -15.49268 | 35126 ft | 415 kts | 218° |
| 2026-05-05 19:47 | 34.18146 | -15.53187 | 35136 ft | 414 kts | 218° |
| 2026-05-05 19:47 | 34.13379 | -15.57095 | 35136 ft | 414 kts | 218° |
| 2026-05-05 19:48 | 34.08611 | -15.60988 | 35137 ft | 414 kts | 218° |
| 2026-05-05 19:48 | 34.03842 | -15.64872 | 35139 ft | 414 kts | 217° |
| 2026-05-05 19:49 | 33.99067 | -15.68756 | 35021 ft | 414 kts | 217° |
| 2026-05-05 19:49 | 33.97481 | -15.70047 | 34410 ft | 418 kts | 217° |
| 2026-05-05 19:49 | 33.94215 | -15.72711 | 32867 ft | 428 kts | 217° |
| 2026-05-05 19:49 | 33.91742 | -15.74727 | 31954 ft | 430 kts | 217° |
| 2026-05-05 19:50 | 33.89254 | -15.76750 | 31135 ft | 431 kts | 217° |
| 2026-05-05 19:50 | 33.86793 | -15.78744 | 30612 ft | 424 kts | 217° |
| 2026-05-05 19:50 | 33.84360 | -15.80712 | 29979 ft | 419 kts | 217° |
| 2026-05-05 19:50 | 33.81954 | -15.82658 | 29360 ft | 413 kts | 217° |
| 2026-05-05 19:51 | 33.79587 | -15.84571 | 28781 ft | 407 kts | 217° |
| 2026-05-05 19:51 | 33.77250 | -15.86463 | 28215 ft | 402 kts | 217° |
| 2026-05-05 19:51 | 33.74946 | -15.88332 | 27649 ft | 397 kts | 217° |
| 2026-05-05 19:51 | 33.72665 | -15.90183 | 27105 ft | 393 kts | 217° |
| 2026-05-05 19:52 | 33.70413 | -15.92007 | 26567 ft | 389 kts | 217° |
| 2026-05-05 19:52 | 33.68180 | -15.93810 | 26017 ft | 385 kts | 217° |
| 2026-05-05 19:52 | 33.65967 | -15.95590 | 25499 ft | 381 kts | 217° |
| 2026-05-05 19:52 | 33.63756 | -15.97324 | 24961 ft | 378 kts | 216° |
| 2026-05-05 19:53 | 33.61546 | -15.99021 | 24452 ft | 376 kts | 216° |
| 2026-05-05 19:53 | 33.59346 | -16.00694 | 23949 ft | 373 kts | 216° |
| 2026-05-05 19:53 | 33.57161 | -16.02352 | 23422 ft | 370 kts | 216° |
| 2026-05-05 19:53 | 33.55002 | -16.03992 | 22946 ft | 365 kts | 216° |
| 2026-05-05 19:54 | 33.52871 | -16.05611 | 22496 ft | 360 kts | 216° |
| 2026-05-05 19:54 | 33.50770 | -16.07211 | 22067 ft | 356 kts | 216° |
| 2026-05-05 19:54 | 33.48691 | -16.08798 | 21638 ft | 352 kts | 216° |
| 2026-05-05 19:54 | 33.46635 | -16.10371 | 21221 ft | 350 kts | 216° |
| 2026-05-05 19:55 | 33.44589 | -16.11937 | 20797 ft | 348 kts | 216° |
| 2026-05-05 19:55 | 33.42553 | -16.13497 | 20367 ft | 347 kts | 216° |
| 2026-05-05 19:55 | 33.40525 | -16.15051 | 19935 ft | 345 kts | 216° |
| 2026-05-05 19:55 | 33.38505 | -16.16593 | 19511 ft | 343 kts | 216° |
| 2026-05-05 19:56 | 33.36491 | -16.18124 | 19074 ft | 342 kts | 216° |
| 2026-05-05 19:56 | 33.34490 | -16.19646 | 18639 ft | 341 kts | 216° |
| 2026-05-05 19:56 | 33.32489 | -16.21169 | 18166 ft | 340 kts | 216° |
| 2026-05-05 19:56 | 33.30499 | -16.22681 | 17712 ft | 338 kts | 215° |
| 2026-05-05 19:57 | 33.28521 | -16.24182 | 17270 ft | 336 kts | 215° |
| 2026-05-05 19:57 | 33.27217 | -16.25171 | 16958 ft | 335 kts | 216° |
| 2026-05-05 19:57 | 33.24600 | -16.27160 | 16397 ft | 333 kts | 215° |
| 2026-05-05 19:57 | 33.22647 | -16.28643 | 15964 ft | 332 kts | 215° |
| 2026-05-05 19:58 | 33.20705 | -16.30119 | 15530 ft | 331 kts | 215° |
| 2026-05-05 19:58 | 33.18766 | -16.31593 | 15103 ft | 330 kts | 216° |
| 2026-05-05 19:58 | 33.16828 | -16.33067 | 14675 ft | 330 kts | 215° |
| 2026-05-05 19:58 | 33.14893 | -16.34536 | 14243 ft | 330 kts | 213° |
| 2026-05-05 19:59 | 33.12952 | -16.36005 | 13784 ft | 330 kts | 215° |
| 2026-05-05 19:59 | 33.11013 | -16.37471 | 13324 ft | 329 kts | 216° |
| 2026-05-05 19:59 | 33.09084 | -16.38929 | 12888 ft | 328 kts | 214° |
| 2026-05-05 19:59 | 33.07810 | -16.39891 | 12597 ft | 327 kts | 213° |
| 2026-05-05 20:00 | 33.05244 | -16.41827 | 11987 ft | 326 kts | 214° |
| 2026-05-05 20:00 | 33.03335 | -16.43269 | 11542 ft | 325 kts | 214° |
| 2026-05-05 20:00 | 33.02073 | -16.44221 | 11240 ft | 324 kts | 213° |
| 2026-05-05 20:00 | 32.99523 | -16.46146 | 10641 ft | 324 kts | 214° |
| 2026-05-05 20:01 | 32.97653 | -16.47557 | 10506 ft | 312 kts | 213° |
| 2026-05-05 20:01 | 32.95849 | -16.48917 | 10376 ft | 302 kts | 213° |
| 2026-05-05 20:01 | 32.94091 | -16.50243 | 10163 ft | 295 kts | 214° |
| 2026-05-05 20:01 | 32.92418 | -16.51636 | 10096 ft | 294 kts | 222° |
| 2026-05-05 20:02 | 32.91412 | -16.52712 | 10031 ft | 295 kts | 223° |
| 2026-05-05 20:02 | 32.89866 | -16.54370 | 9438 ft | 301 kts | 223° |
| 2026-05-05 20:02 | 32.88336 | -16.55999 | 9235 ft | 286 kts | 223° |
| 2026-05-05 20:02 | 32.86892 | -16.57534 | 8890 ft | 273 kts | 223° |
| 2026-05-05 20:03 | 32.85490 | -16.59029 | 8380 ft | 268 kts | 223° |
| 2026-05-05 20:03 | 32.84118 | -16.60496 | 7942 ft | 264 kts | 223° |
| 2026-05-05 20:03 | 32.82758 | -16.61944 | 7461 ft | 261 kts | 220° |
| 2026-05-05 20:03 | 32.81260 | -16.63158 | 6994 ft | 261 kts | 207° |
| 2026-05-05 20:04 | 32.79571 | -16.63971 | 6515 ft | 263 kts | 198° |
| 2026-05-05 20:04 | 32.77822 | -16.64675 | 6029 ft | 268 kts | 198° |
| 2026-05-05 20:04 | 32.76040 | -16.65395 | 5450 ft | 273 kts | 198° |
| 2026-05-05 20:04 | 32.74254 | -16.66118 | 4962 ft | 268 kts | 198° |
| 2026-05-05 20:05 | 32.72516 | -16.66824 | 4474 ft | 261 kts | 197° |
| 2026-05-05 20:05 | 32.70824 | -16.67510 | 4007 ft | 253 kts | 195° |
| 2026-05-05 20:05 | 32.69170 | -16.68181 | 3834 ft | 252 kts | 197° |
| 2026-05-05 20:05 | 32.67513 | -16.68853 | 3768 ft | 254 kts | 195° |
| 2026-05-05 20:06 | 32.65841 | -16.69530 | 3667 ft | 254 kts | 195° |
| 2026-05-05 20:06 | 32.64209 | -16.70192 | 3584 ft | 239 kts | 198° |
| 2026-05-05 20:06 | 32.62780 | -16.71082 | 3315 ft | 229 kts | 217° |
| 2026-05-05 20:06 | 32.61684 | -16.72442 | 2713 ft | 227 kts | 237° |
| 2026-05-05 20:07 | 32.61046 | -16.74087 | 2312 ft | 211 kts | 257° |
| 2026-05-05 20:07 | 32.60844 | -16.75706 | 2160 ft | 183 kts | 273° |
| 2026-05-05 20:07 | 32.60975 | -16.77143 | 2106 ft | 165 kts | 289° |
| 2026-05-05 20:07 | 32.61357 | -16.78372 | 1976 ft | 155 kts | 305° |
| 2026-05-05 20:08 | 32.62008 | -16.79328 | 1727 ft | 145 kts | 324° |
| 2026-05-05 20:08 | 32.62825 | -16.79972 | 1514 ft | 138 kts | 341° |
| 2026-05-05 20:08 | 32.63724 | -16.80304 | 1341 ft | 133 kts | 358° |
| 2026-05-05 20:08 | 32.64634 | -16.80352 | 1170 ft | 131 kts | 5° |
| 2026-05-05 20:09 | 32.65543 | -16.80344 | 985 ft | 130 kts | 4° |
| 2026-05-05 20:09 | 32.66466 | -16.80249 | 854 ft | 133 kts | 11° |
| 2026-05-05 20:09 | 32.67388 | -16.79984 | 591 ft | 135 kts | 21° |
| 2026-05-05 20:09 | 32.68120 | -16.79406 | 471 ft | 123 kts | 43° |
| 2026-05-05 20:10 | 32.68735 | -16.78679 | 292 ft | 125 kts | 41° |
| 2026-05-05 20:10 | 32.69337 | -16.77942 | 601 ft | 123 kts | 43° |
| 2026-05-05 20:10 | 32.69991 | -16.77095 | 1200 ft | 147 kts | 46° |
| 2026-05-05 20:10 | 32.70709 | -16.76214 | 1915 ft | 154 kts | 46° |
| 2026-05-05 20:11 | 32.71574 | -16.75232 | 2024 ft | 189 kts | 44° |
| 2026-05-05 20:11 | 32.72566 | -16.74109 | 2435 ft | 201 kts | 44° |
| 2026-05-05 20:11 | 32.73576 | -16.72959 | 3268 ft | 202 kts | 44° |
| 2026-05-05 20:11 | 32.74597 | -16.71792 | 3951 ft | 203 kts | 44° |
| 2026-05-05 20:12 | 32.75591 | -16.70626 | 3853 ft | 202 kts | 47° |
| 2026-05-05 20:12 | 32.76276 | -16.69182 | 3532 ft | 203 kts | 77° |
| 2026-05-05 20:12 | 32.76226 | -16.67550 | 3404 ft | 197 kts | 108° |
| 2026-05-05 20:12 | 32.75494 | -16.66214 | 3259 ft | 195 kts | 136° |
| 2026-05-05 20:13 | 32.74283 | -16.65511 | 3119 ft | 198 kts | 167° |
| 2026-05-05 20:13 | 32.72906 | -16.65662 | 3034 ft | 205 kts | 199° |
| 2026-05-05 20:13 | 32.71590 | -16.66351 | 3040 ft | 207 kts | 200° |
| 2026-05-05 20:13 | 32.70262 | -16.67044 | 3039 ft | 209 kts | 200° |
| 2026-05-05 20:14 | 32.68929 | -16.67736 | 3037 ft | 209 kts | 199° |
| 2026-05-05 20:14 | 32.67597 | -16.68429 | 3037 ft | 210 kts | 199° |
| 2026-05-05 20:14 | 32.66262 | -16.69125 | 3041 ft | 210 kts | 200° |
| 2026-05-05 20:14 | 32.64931 | -16.69836 | 3037 ft | 215 kts | 203° |
| 2026-05-05 20:15 | 32.63546 | -16.70724 | 3041 ft | 233 kts | 208° |
| 2026-05-05 20:15 | 32.62134 | -16.71685 | 3036 ft | 234 kts | 208° |
| 2026-05-05 20:15 | 32.60715 | -16.72666 | 3036 ft | 236 kts | 209° |
| 2026-05-05 20:15 | 32.59295 | -16.73654 | 3034 ft | 237 kts | 208° |
| 2026-05-05 20:16 | 32.57871 | -16.74642 | 3034 ft | 238 kts | 209° |
| 2026-05-05 20:16 | 32.56440 | -16.75630 | 3033 ft | 238 kts | 208° |
| 2026-05-05 20:16 | 32.55012 | -16.76611 | 3033 ft | 236 kts | 209° |
| 2026-05-05 20:16 | 32.53590 | -16.77586 | 3034 ft | 237 kts | 208° |
| 2026-05-05 20:17 | 32.52153 | -16.78568 | 3028 ft | 239 kts | 209° |
| 2026-05-05 20:17 | 32.50715 | -16.79551 | 3025 ft | 241 kts | 208° |
| 2026-05-05 20:17 | 32.49261 | -16.80545 | 3027 ft | 242 kts | 209° |
| 2026-05-05 20:17 | 32.47819 | -16.81533 | 3020 ft | 240 kts | 208° |
| 2026-05-05 20:18 | 32.46378 | -16.82521 | 3017 ft | 238 kts | 208° |
| 2026-05-05 20:18 | 32.44963 | -16.83517 | 3014 ft | 238 kts | 215° |
| 2026-05-05 20:18 | 32.43967 | -16.85050 | 3005 ft | 237 kts | 257° |
| 2026-05-05 20:18 | 32.44019 | -16.86920 | 3012 ft | 227 kts | 302° |
| 2026-05-05 20:19 | 32.45037 | -16.88203 | 3001 ft | 212 kts | 345° |
| 2026-05-05 20:19 | 32.46424 | -16.88277 | 3002 ft | 199 kts | 25° |
| 2026-05-05 20:19 | 32.47486 | -16.87248 | 3023 ft | 200 kts | 48° |
| 2026-05-05 20:19 | 32.48417 | -16.86031 | 3017 ft | 199 kts | 49° |
| 2026-05-05 20:20 | 32.49338 | -16.84823 | 3021 ft | 198 kts | 48° |
| 2026-05-05 20:20 | 32.50265 | -16.83603 | 3020 ft | 203 kts | 48° |
| 2026-05-05 20:20 | 32.51201 | -16.82365 | 3020 ft | 201 kts | 49° |
| 2026-05-05 20:20 | 32.52224 | -16.81241 | 2822 ft | 199 kts | 33° |
| 2026-05-05 20:21 | 32.53502 | -16.80640 | 2754 ft | 201 kts | 13° |
| 2026-05-05 20:21 | 32.54888 | -16.80344 | 2697 ft | 199 kts | 11° |
| 2026-05-05 20:21 | 32.56227 | -16.80249 | 2636 ft | 189 kts | 4° |
| 2026-05-05 20:21 | 32.57521 | -16.80257 | 2504 ft | 183 kts | 3° |
| 2026-05-05 20:22 | 32.58741 | -16.80281 | 2305 ft | 168 kts | 3° |
| 2026-05-05 20:22 | 32.59861 | -16.80303 | 2115 ft | 151 kts | 4° |
| 2026-05-05 20:22 | 32.60857 | -16.80320 | 1909 ft | 139 kts | 5° |
| 2026-05-05 20:22 | 32.61796 | -16.80329 | 1721 ft | 133 kts | 6° |
| 2026-05-05 20:23 | 32.62742 | -16.80332 | 1546 ft | 147 kts | 5° |
| 2026-05-05 20:23 | 32.63828 | -16.80329 | 1329 ft | 154 kts | 4° |
| 2026-05-05 20:23 | 32.64834 | -16.80337 | 1089 ft | 137 kts | 3° |
| 2026-05-05 20:23 | 32.65763 | -16.80313 | 928 ft | 129 kts | 6° |
| 2026-05-05 20:24 | 32.66634 | -16.80228 | 785 ft | 124 kts | 9° |
| 2026-05-05 20:24 | 32.67456 | -16.79924 | 628 ft | 126 kts | 23° |
| 2026-05-05 20:24 | 32.68158 | -16.79354 | 504 ft | 124 kts | 40° |
| 2026-05-05 20:24 | 32.68789 | -16.78623 | 280 ft | 128 kts | 43° |
| 2026-05-05 20:25 | 32.69387 | -16.77905 | 180 ft | 112 kts | 43° |
| 2026-05-05 20:25 | 32.69842 | -16.77383 | 176 ft | 67 kts | 44° |
| 2026-05-05 20:25 | 32.69950 | -16.77179 | 176 ft | 9 kts | 113° |
| 2026-05-05 20:25 | 32.69937 | -16.77169 | 176 ft | 0 kts | 174° |
| 2026-05-05 20:26 | 32.69844 | -16.77183 | 176 ft | 33 kts | 200° |
| 2026-05-05 20:26 | 32.69693 | -16.77362 | 176 ft | 29 kts | 221° |
| 2026-05-05 20:26 | 32.69557 | -16.77528 | 176 ft | 26 kts | 228° |
| 2026-05-05 20:26 | 32.69476 | -16.77602 | 176 ft | 1 kts | 155° |
| 2026-05-05 20:27 | 32.69475 | -16.77601 | 176 ft | 0 kts | 150° |
| 2026-05-05 20:27 | 32.69470 | -16.77614 | 176 ft | 7 kts | 256° |
| 2026-05-05 20:27 | 32.69427 | -16.77692 | 176 ft | 10 kts | 225° |
| 2026-05-05 20:27 | 32.69396 | -16.77704 | 176 ft | 1 kts | 141° |
| 2026-05-05 20:28 | 32.69383 | -16.77690 | 176 ft | 4 kts | 139° |
| 2026-05-05 20:28 | 32.69375 | -16.77682 | 176 ft | 1 kts | 139° |
| 2026-05-05 20:28 | 32.69363 | -16.77669 | 176 ft | 0 kts | 139° |
| 2026-05-05 20:28 | 32.69358 | -16.77664 | 176 ft | 0 kts | 139° |